sensor_id;sensor_type;location;lat;lon;timestamp;P1;durP1;ratioP1;P2;durP2;ratioP2
35667;SDS011;22158;59.280;17.806;2023-05-10T05:01:54;9.13;;;4.93;;
35667;SDS011;22158;59.280;17.806;2023-05-10T05:04:20;8.40;;;4.80;;
35667;SDS011;22158;59.280;17.806;2023-05-10T05:06:45;10.95;;;5.10;;
35667;SDS011;22158;59.280;17.806;2023-05-10T05:09:11;7.07;;;4.15;;
35667;SDS011;22158;59.280;17.806;2023-05-10T05:11:36;9.05;;;4.95;;
35667;SDS011;22158;59.280;17.806;2023-05-10T05:14:02;6.70;;;3.95;;
35667;SDS011;22158;59.280;17.806;2023-05-10T05:16:30;10.18;;;4.43;;
35667;SDS011;22158;59.280;17.806;2023-05-10T05:18:56;7.47;;;4.28;;
35667;SDS011;22158;59.280;17.806;2023-05-10T05:21:22;7.85;;;4.88;;
35667;SDS011;22158;59.280;17.806;2023-05-10T05:23:48;11.43;;;4.20;;
35667;SDS011;22158;59.280;17.806;2023-05-10T05:26:14;8.38;;;5.20;;
35667;SDS011;22158;59.280;17.806;2023-05-10T05:28:40;6.07;;;3.97;;
35667;SDS011;22158;59.280;17.806;2023-05-10T05:31:06;9.30;;;4.07;;
35667;SDS011;22158;59.280;17.806;2023-05-10T05:33:35;14.02;;;4.32;;
35667;SDS011;22158;59.280;17.806;2023-05-10T05:36:01;7.00;;;3.95;;
35667;SDS011;22158;59.280;17.806;2023-05-10T05:38:28;7.10;;;4.45;;
35667;SDS011;22158;59.280;17.806;2023-05-10T05:40:53;11.93;;;4.75;;
35667;SDS011;22158;59.280;17.806;2023-05-10T05:43:19;5.63;;;3.83;;
35667;SDS011;22158;59.280;17.806;2023-05-10T05:45:44;6.10;;;4.05;;
35667;SDS011;22158;59.280;17.806;2023-05-10T05:48:10;8.02;;;3.83;;
35667;SDS011;22158;59.280;17.806;2023-05-10T05:50:36;5.88;;;3.08;;
35667;SDS011;22158;59.280;17.806;2023-05-10T05:53:05;6.60;;;4.30;;
35667;SDS011;22158;59.280;17.806;2023-05-10T05:55:30;7.00;;;3.78;;
35667;SDS011;22158;59.280;17.806;2023-05-10T05:57:57;9.20;;;3.97;;
35667;SDS011;22158;59.280;17.806;2023-05-10T06:00:23;11.32;;;6.65;;
35667;SDS011;22158;59.280;17.806;2023-05-10T06:02:49;6.50;;;3.67;;
35667;SDS011;22158;59.280;17.806;2023-05-10T06:05:14;9.73;;;4.18;;
35667;SDS011;22158;59.280;17.806;2023-05-10T06:07:40;9.20;;;3.92;;
35667;SDS011;22158;59.280;17.806;2023-05-10T06:10:07;6.10;;;4.20;;
35667;SDS011;22158;59.280;17.806;2023-05-10T06:12:33;10.05;;;3.60;;
35667;SDS011;22158;59.280;17.806;2023-05-10T06:14:59;8.68;;;3.97;;
35667;SDS011;22158;59.280;17.806;2023-05-10T06:17:25;6.38;;;4.35;;
35667;SDS011;22158;59.280;17.806;2023-05-10T06:19:52;5.60;;;3.45;;
35667;SDS011;22158;59.280;17.806;2023-05-10T06:22:18;6.05;;;3.63;;
35667;SDS011;22158;59.280;17.806;2023-05-10T06:24:43;5.63;;;3.90;;
35667;SDS011;22158;59.280;17.806;2023-05-10T06:27:09;8.00;;;3.90;;
35667;SDS011;22158;59.280;17.806;2023-05-10T06:29:34;7.65;;;3.67;;
35667;SDS011;22158;59.280;17.806;2023-05-10T06:32:00;4.10;;;3.22;;
35667;SDS011;22158;59.280;17.806;2023-05-10T06:34:26;6.95;;;3.60;;
35667;SDS011;22158;59.280;17.806;2023-05-10T06:36:51;6.38;;;3.40;;
35667;SDS011;22158;59.280;17.806;2023-05-10T06:39:17;6.38;;;3.90;;
35667;SDS011;22158;59.280;17.806;2023-05-10T06:41:43;9.18;;;3.58;;
35667;SDS011;22158;59.280;17.806;2023-05-10T06:44:08;8.23;;;3.40;;
35667;SDS011;22158;59.280;17.806;2023-05-10T06:46:34;6.72;;;3.15;;
35667;SDS011;22158;59.280;17.806;2023-05-10T06:49:00;5.75;;;3.33;;
35667;SDS011;22158;59.280;17.806;2023-05-10T06:51:25;7.57;;;3.85;;
35667;SDS011;22158;59.280;17.806;2023-05-10T06:53:51;6.38;;;3.25;;
35667;SDS011;22158;59.280;17.806;2023-05-10T06:56:16;8.40;;;3.80;;
35667;SDS011;22158;59.280;17.806;2023-05-10T06:58:42;6.20;;;3.83;;
35667;SDS011;22158;59.280;17.806;2023-05-10T07:01:08;7.50;;;3.40;;
35667;SDS011;22158;59.280;17.806;2023-05-10T07:03:33;8.88;;;4.78;;
35667;SDS011;22158;59.280;17.806;2023-05-10T07:06:02;6.93;;;3.72;;
35667;SDS011;22158;59.280;17.806;2023-05-10T07:08:29;6.90;;;3.90;;
35667;SDS011;22158;59.280;17.806;2023-05-10T07:10:59;4.25;;;2.67;;
35667;SDS011;22158;59.280;17.806;2023-05-10T07:13:29;7.53;;;3.58;;
35667;SDS011;22158;59.280;17.806;2023-05-10T07:15:59;7.45;;;4.10;;
35667;SDS011;22158;59.280;17.806;2023-05-10T07:18:25;7.22;;;3.60;;
35667;SDS011;22158;59.280;17.806;2023-05-10T07:20:51;13.00;;;3.72;;
35667;SDS011;22158;59.280;17.806;2023-05-10T07:23:16;8.23;;;3.35;;
35667;SDS011;22158;59.280;17.806;2023-05-10T07:25:44;7.32;;;3.78;;
35667;SDS011;22158;59.280;17.806;2023-05-10T07:28:10;5.82;;;3.30;;
35667;SDS011;22158;59.280;17.806;2023-05-10T07:30:36;4.60;;;3.40;;
35667;SDS011;22158;59.280;17.806;2023-05-10T07:33:01;6.25;;;3.58;;
35667;SDS011;22158;59.280;17.806;2023-05-10T07:35:27;7.22;;;3.33;;
35667;SDS011;22158;59.280;17.806;2023-05-10T07:37:53;6.18;;;3.38;;
35667;SDS011;22158;59.280;17.806;2023-05-10T07:40:18;6.00;;;3.25;;
35667;SDS011;22158;59.280;17.806;2023-05-10T07:42:44;5.50;;;3.78;;
35667;SDS011;22158;59.280;17.806;2023-05-10T07:45:10;10.48;;;3.90;;
35667;SDS011;22158;59.280;17.806;2023-05-10T07:47:36;10.20;;;3.22;;
35667;SDS011;22158;59.280;17.806;2023-05-10T07:50:01;6.18;;;3.00;;
35667;SDS011;22158;59.280;17.806;2023-05-10T07:52:27;5.85;;;2.75;;
35667;SDS011;22158;59.280;17.806;2023-05-10T07:54:52;7.18;;;3.63;;
35667;SDS011;22158;59.280;17.806;2023-05-10T07:57:18;8.60;;;3.30;;
35667;SDS011;22158;59.280;17.806;2023-05-10T07:59:44;6.95;;;3.05;;
35667;SDS011;22158;59.280;17.806;2023-05-10T08:02:10;5.13;;;3.38;;
35667;SDS011;22158;59.280;17.806;2023-05-10T08:04:36;7.68;;;3.42;;
35667;SDS011;22158;59.280;17.806;2023-05-10T08:07:01;6.10;;;3.15;;
35667;SDS011;22158;59.280;17.806;2023-05-10T08:09:27;4.85;;;3.08;;
35667;SDS011;22158;59.280;17.806;2023-05-10T08:11:52;8.05;;;3.70;;
35667;SDS011;22158;59.280;17.806;2023-05-10T08:14:18;6.57;;;3.53;;
35667;SDS011;22158;59.280;17.806;2023-05-10T08:16:43;6.97;;;3.38;;
35667;SDS011;22158;59.280;17.806;2023-05-10T08:19:09;10.05;;;3.03;;
35667;SDS011;22158;59.280;17.806;2023-05-10T08:21:35;7.07;;;3.55;;
35667;SDS011;22158;59.280;17.806;2023-05-10T08:24:00;4.35;;;2.97;;
35667;SDS011;22158;59.280;17.806;2023-05-10T08:26:26;5.70;;;3.28;;
35667;SDS011;22158;59.280;17.806;2023-05-10T08:28:52;6.47;;;3.30;;
35667;SDS011;22158;59.280;17.806;2023-05-10T08:31:18;3.50;;;2.50;;
35667;SDS011;22158;59.280;17.806;2023-05-10T08:33:43;6.03;;;2.90;;
35667;SDS011;22158;59.280;17.806;2023-05-10T08:36:09;4.88;;;2.85;;
35667;SDS011;22158;59.280;17.806;2023-05-10T08:38:35;10.50;;;3.35;;
35667;SDS011;22158;59.280;17.806;2023-05-10T08:41:02;6.50;;;2.40;;
35667;SDS011;22158;59.280;17.806;2023-05-10T08:43:28;6.20;;;3.00;;
35667;SDS011;22158;59.280;17.806;2023-05-10T08:45:54;10.90;;;3.30;;
35667;SDS011;22158;59.280;17.806;2023-05-10T08:48:23;3.90;;;2.75;;
35667;SDS011;22158;59.280;17.806;2023-05-10T08:50:50;4.80;;;3.47;;
35667;SDS011;22158;59.280;17.806;2023-05-10T08:53:17;5.32;;;2.80;;
35667;SDS011;22158;59.280;17.806;2023-05-10T08:55:44;8.63;;;2.95;;
35667;SDS011;22158;59.280;17.806;2023-05-10T08:58:11;7.38;;;2.95;;
35667;SDS011;22158;59.280;17.806;2023-05-10T09:00:37;3.65;;;2.75;;
35667;SDS011;22158;59.280;17.806;2023-05-10T09:03:03;5.75;;;3.17;;
35667;SDS011;22158;59.280;17.806;2023-05-10T09:05:30;6.05;;;3.00;;
35667;SDS011;22158;59.280;17.806;2023-05-10T09:07:56;7.45;;;3.40;;
35667;SDS011;22158;59.280;17.806;2023-05-10T09:10:21;4.32;;;3.05;;
35667;SDS011;22158;59.280;17.806;2023-05-10T09:12:50;4.82;;;2.55;;
35667;SDS011;22158;59.280;17.806;2023-05-10T09:15:16;5.78;;;3.92;;
35667;SDS011;22158;59.280;17.806;2023-05-10T09:17:44;5.85;;;2.65;;
35667;SDS011;22158;59.280;17.806;2023-05-10T09:20:10;3.95;;;2.35;;
35667;SDS011;22158;59.280;17.806;2023-05-10T09:22:36;4.82;;;3.00;;
35667;SDS011;22158;59.280;17.806;2023-05-10T09:27:35;6.72;;;2.90;;
35667;SDS011;22158;59.280;17.806;2023-05-10T09:30:01;5.63;;;2.67;;
35667;SDS011;22158;59.280;17.806;2023-05-10T09:35:10;7.32;;;3.05;;
35667;SDS011;22158;59.280;17.806;2023-05-10T09:37:38;6.03;;;3.35;;
35667;SDS011;22158;59.280;17.806;2023-05-10T09:40:10;6.88;;;2.88;;
35667;SDS011;22158;59.280;17.806;2023-05-10T09:42:37;13.48;;;3.17;;
35667;SDS011;22158;59.280;17.806;2023-05-10T09:45:03;8.48;;;3.33;;
35667;SDS011;22158;59.280;17.806;2023-05-10T09:47:36;5.32;;;3.85;;
35667;SDS011;22158;59.280;17.806;2023-05-10T09:50:02;5.18;;;2.60;;
35667;SDS011;22158;59.280;17.806;2023-05-10T09:52:30;9.00;;;2.90;;
35667;SDS011;22158;59.280;17.806;2023-05-10T09:54:56;6.13;;;2.75;;
35667;SDS011;22158;59.280;17.806;2023-05-10T09:57:21;2.85;;;2.45;;
35667;SDS011;22158;59.280;17.806;2023-05-10T09:59:48;5.53;;;2.90;;
35667;SDS011;22158;59.280;17.806;2023-05-10T10:02:15;4.60;;;2.72;;
35667;SDS011;22158;59.280;17.806;2023-05-10T10:04:42;6.30;;;2.70;;
35667;SDS011;22158;59.280;17.806;2023-05-10T10:07:08;5.82;;;3.28;;
35667;SDS011;22158;59.280;17.806;2023-05-10T10:09:34;6.78;;;3.20;;
35667;SDS011;22158;59.280;17.806;2023-05-10T10:12:00;5.00;;;2.95;;
35667;SDS011;22158;59.280;17.806;2023-05-10T10:14:27;7.07;;;2.40;;
35667;SDS011;22158;59.280;17.806;2023-05-10T10:16:53;5.22;;;3.13;;
35667;SDS011;22158;59.280;17.806;2023-05-10T10:19:20;7.65;;;2.97;;
35667;SDS011;22158;59.280;17.806;2023-05-10T10:21:49;6.40;;;2.33;;
35667;SDS011;22158;59.280;17.806;2023-05-10T10:24:15;4.90;;;2.58;;
35667;SDS011;22158;59.280;17.806;2023-05-10T10:26:41;5.13;;;2.40;;
35667;SDS011;22158;59.280;17.806;2023-05-10T10:29:23;5.63;;;2.65;;
35667;SDS011;22158;59.280;17.806;2023-05-10T10:31:57;6.38;;;3.05;;
35667;SDS011;22158;59.280;17.806;2023-05-10T10:34:34;5.40;;;3.47;;
35667;SDS011;22158;59.280;17.806;2023-05-10T10:37:03;5.43;;;2.53;;
35667;SDS011;22158;59.280;17.806;2023-05-10T10:39:30;7.45;;;3.72;;
35667;SDS011;22158;59.280;17.806;2023-05-10T10:41:57;17.65;;;5.25;;
35667;SDS011;22158;59.280;17.806;2023-05-10T10:46:59;5.70;;;3.28;;
35667;SDS011;22158;59.280;17.806;2023-05-10T10:49:30;4.63;;;2.97;;
35667;SDS011;22158;59.280;17.806;2023-05-10T10:52:12;7.90;;;2.65;;
35667;SDS011;22158;59.280;17.806;2023-05-10T10:57:53;7.38;;;2.72;;
35667;SDS011;22158;59.280;17.806;2023-05-10T11:00:26;6.03;;;3.10;;
35667;SDS011;22158;59.280;17.806;2023-05-10T11:03:11;4.63;;;2.50;;
35667;SDS011;22158;59.280;17.806;2023-05-10T11:05:44;5.35;;;3.10;;
35667;SDS011;22158;59.280;17.806;2023-05-10T11:13:37;4.40;;;2.95;;
35667;SDS011;22158;59.280;17.806;2023-05-10T11:18:59;7.82;;;2.70;;
35667;SDS011;22158;59.280;17.806;2023-05-10T11:21:29;7.20;;;2.75;;
35667;SDS011;22158;59.280;17.806;2023-05-10T11:23:56;6.15;;;2.90;;
35667;SDS011;22158;59.280;17.806;2023-05-10T11:26:24;5.55;;;2.95;;
35667;SDS011;22158;59.280;17.806;2023-05-10T11:28:51;5.00;;;2.72;;
35667;SDS011;22158;59.280;17.806;2023-05-10T11:31:19;6.70;;;3.22;;
35667;SDS011;22158;59.280;17.806;2023-05-10T11:33:46;5.72;;;2.63;;
35667;SDS011;22158;59.280;17.806;2023-05-10T11:36:17;4.72;;;2.65;;
35667;SDS011;22158;59.280;17.806;2023-05-10T11:38:44;5.05;;;3.00;;
35667;SDS011;22158;59.280;17.806;2023-05-10T11:41:11;7.68;;;3.55;;
35667;SDS011;22158;59.280;17.806;2023-05-10T11:43:40;9.85;;;2.88;;
35667;SDS011;22158;59.280;17.806;2023-05-10T11:46:10;4.88;;;3.13;;
35667;SDS011;22158;59.280;17.806;2023-05-10T11:48:40;8.40;;;3.25;;
35667;SDS011;22158;59.280;17.806;2023-05-10T11:51:09;5.53;;;2.50;;
35667;SDS011;22158;59.280;17.806;2023-05-10T11:53:36;6.35;;;3.47;;
35667;SDS011;22158;59.280;17.806;2023-05-10T11:56:05;5.32;;;2.80;;
35667;SDS011;22158;59.280;17.806;2023-05-10T11:58:32;10.50;;;4.25;;
35667;SDS011;22158;59.280;17.806;2023-05-10T12:00:59;6.38;;;3.13;;
35667;SDS011;22158;59.280;17.806;2023-05-10T12:03:25;4.72;;;3.10;;
35667;SDS011;22158;59.280;17.806;2023-05-10T12:05:51;4.20;;;3.13;;
35667;SDS011;22158;59.280;17.806;2023-05-10T12:08:20;7.25;;;2.75;;
35667;SDS011;22158;59.280;17.806;2023-05-10T12:11:06;4.50;;;2.40;;
35667;SDS011;22158;59.280;17.806;2023-05-10T12:13:37;3.90;;;2.60;;
35667;SDS011;22158;59.280;17.806;2023-05-10T12:16:18;5.30;;;3.17;;
35667;SDS011;22158;59.280;17.806;2023-05-10T12:18:47;5.65;;;3.00;;
35667;SDS011;22158;59.280;17.806;2023-05-10T12:21:13;12.98;;;3.60;;
35667;SDS011;22158;59.280;17.806;2023-05-10T12:23:40;6.25;;;2.63;;
35667;SDS011;22158;59.280;17.806;2023-05-10T12:26:08;7.25;;;2.72;;
35667;SDS011;22158;59.280;17.806;2023-05-10T12:28:34;4.68;;;2.58;;
35667;SDS011;22158;59.280;17.806;2023-05-10T12:31:00;5.70;;;2.78;;
35667;SDS011;22158;59.280;17.806;2023-05-10T12:33:26;5.80;;;3.05;;
35667;SDS011;22158;59.280;17.806;2023-05-10T12:35:59;6.40;;;2.88;;
35667;SDS011;22158;59.280;17.806;2023-05-10T12:38:26;5.80;;;2.58;;
35667;SDS011;22158;59.280;17.806;2023-05-10T12:40:55;7.45;;;3.20;;
35667;SDS011;22158;59.280;17.806;2023-05-10T12:43:21;6.88;;;2.97;;
35667;SDS011;22158;59.280;17.806;2023-05-10T12:45:47;7.97;;;2.83;;
35667;SDS011;22158;59.280;17.806;2023-05-10T12:48:14;9.50;;;3.15;;
35667;SDS011;22158;59.280;17.806;2023-05-10T12:50:40;5.93;;;2.90;;
35667;SDS011;22158;59.280;17.806;2023-05-10T12:53:05;5.07;;;2.92;;
35667;SDS011;22158;59.280;17.806;2023-05-10T12:55:31;4.80;;;2.60;;
35667;SDS011;22158;59.280;17.806;2023-05-10T12:57:57;3.63;;;2.63;;
35667;SDS011;22158;59.280;17.806;2023-05-10T13:00:23;7.13;;;2.85;;
35667;SDS011;22158;59.280;17.806;2023-05-10T13:02:48;9.02;;;2.88;;
35667;SDS011;22158;59.280;17.806;2023-05-10T13:05:14;5.53;;;2.67;;
35667;SDS011;22158;59.280;17.806;2023-05-10T13:07:40;5.68;;;2.80;;
35667;SDS011;22158;59.280;17.806;2023-05-10T13:10:06;3.47;;;2.28;;
35667;SDS011;22158;59.280;17.806;2023-05-10T13:12:31;7.32;;;2.30;;
35667;SDS011;22158;59.280;17.806;2023-05-10T13:14:57;3.17;;;2.42;;
35667;SDS011;22158;59.280;17.806;2023-05-10T13:17:24;2.60;;;1.88;;
35667;SDS011;22158;59.280;17.806;2023-05-10T13:19:50;6.00;;;2.65;;
35667;SDS011;22158;59.280;17.806;2023-05-10T13:22:16;5.82;;;2.55;;
35667;SDS011;22158;59.280;17.806;2023-05-10T13:24:42;5.13;;;2.30;;
35667;SDS011;22158;59.280;17.806;2023-05-10T13:27:08;3.40;;;2.75;;
35667;SDS011;22158;59.280;17.806;2023-05-10T13:29:33;6.40;;;2.60;;
35667;SDS011;22158;59.280;17.806;2023-05-10T13:31:59;8.00;;;2.65;;
35667;SDS011;22158;59.280;17.806;2023-05-10T13:34:25;5.90;;;2.33;;
35667;SDS011;22158;59.280;17.806;2023-05-10T13:36:50;3.88;;;2.55;;
35667;SDS011;22158;59.280;17.806;2023-05-10T13:39:17;4.82;;;2.58;;
35667;SDS011;22158;59.280;17.806;2023-05-10T13:41:44;11.52;;;2.90;;
35667;SDS011;22158;59.280;17.806;2023-05-10T13:44:11;3.83;;;2.30;;
35667;SDS011;22158;59.280;17.806;2023-05-10T13:46:38;10.32;;;4.15;;
35667;SDS011;22158;59.280;17.806;2023-05-10T13:49:05;3.90;;;2.13;;
35667;SDS011;22158;59.280;17.806;2023-05-10T13:51:31;4.03;;;2.22;;
35667;SDS011;22158;59.280;17.806;2023-05-10T13:53:58;4.93;;;2.17;;
35667;SDS011;22158;59.280;17.806;2023-05-10T13:56:23;5.88;;;3.38;;
35667;SDS011;22158;59.280;17.806;2023-05-10T13:58:49;5.32;;;2.45;;
35667;SDS011;22158;59.280;17.806;2023-05-10T14:01:15;4.65;;;2.78;;
35667;SDS011;22158;59.280;17.806;2023-05-10T14:03:40;5.10;;;2.65;;
35667;SDS011;22158;59.280;17.806;2023-05-10T14:06:06;5.65;;;2.38;;
35667;SDS011;22158;59.280;17.806;2023-05-10T14:08:32;4.30;;;2.65;;
35667;SDS011;22158;59.280;17.806;2023-05-10T14:10:59;5.85;;;2.78;;
35667;SDS011;22158;59.280;17.806;2023-05-10T14:13:25;3.88;;;2.75;;
35667;SDS011;22158;59.280;17.806;2023-05-10T14:15:50;5.63;;;2.15;;
35667;SDS011;22158;59.280;17.806;2023-05-10T14:18:17;7.35;;;2.33;;
35667;SDS011;22158;59.280;17.806;2023-05-10T14:20:42;3.45;;;2.95;;
35667;SDS011;22158;59.280;17.806;2023-05-10T14:23:08;3.83;;;2.75;;
35667;SDS011;22158;59.280;17.806;2023-05-10T14:25:34;4.90;;;2.28;;
35667;SDS011;22158;59.280;17.806;2023-05-10T14:27:59;5.22;;;2.40;;
35667;SDS011;22158;59.280;17.806;2023-05-10T14:30:25;3.10;;;2.00;;
35667;SDS011;22158;59.280;17.806;2023-05-10T14:32:51;3.33;;;2.22;;
35667;SDS011;22158;59.280;17.806;2023-05-10T14:35:18;3.13;;;2.10;;
35667;SDS011;22158;59.280;17.806;2023-05-10T14:37:44;3.70;;;2.22;;
35667;SDS011;22158;59.280;17.806;2023-05-10T14:40:10;3.00;;;2.03;;
35667;SDS011;22158;59.280;17.806;2023-05-10T14:42:36;4.38;;;2.50;;
35667;SDS011;22158;59.280;17.806;2023-05-10T14:45:02;5.13;;;2.75;;
35667;SDS011;22158;59.280;17.806;2023-05-10T14:47:28;5.50;;;2.60;;
35667;SDS011;22158;59.280;17.806;2023-05-10T14:49:55;7.53;;;2.70;;
35667;SDS011;22158;59.280;17.806;2023-05-10T14:52:20;6.32;;;2.45;;
35667;SDS011;22158;59.280;17.806;2023-05-10T14:54:46;3.53;;;2.35;;
35667;SDS011;22158;59.280;17.806;2023-05-10T14:57:11;4.20;;;2.50;;
35667;SDS011;22158;59.280;17.806;2023-05-10T14:59:37;4.53;;;2.45;;
35667;SDS011;22158;59.280;17.806;2023-05-10T15:02:03;6.70;;;2.17;;
35667;SDS011;22158;59.280;17.806;2023-05-10T15:04:29;5.15;;;2.60;;
35667;SDS011;22158;59.280;17.806;2023-05-10T15:06:55;3.53;;;1.92;;
35667;SDS011;22158;59.280;17.806;2023-05-10T15:09:24;4.13;;;2.38;;
35667;SDS011;22158;59.280;17.806;2023-05-10T15:11:49;5.80;;;2.60;;
35667;SDS011;22158;59.280;17.806;2023-05-10T15:14:15;3.33;;;2.50;;
35667;SDS011;22158;59.280;17.806;2023-05-10T15:16:40;4.97;;;2.40;;
35667;SDS011;22158;59.280;17.806;2023-05-10T15:19:06;7.53;;;2.40;;
35667;SDS011;22158;59.280;17.806;2023-05-10T15:21:32;5.78;;;2.75;;
35667;SDS011;22158;59.280;17.806;2023-05-10T15:24:03;5.97;;;2.80;;
35667;SDS011;22158;59.280;17.806;2023-05-10T15:26:30;3.53;;;2.15;;
35667;SDS011;22158;59.280;17.806;2023-05-10T15:28:55;9.00;;;2.53;;
35667;SDS011;22158;59.280;17.806;2023-05-10T15:31:21;4.50;;;2.03;;
35667;SDS011;22158;59.280;17.806;2023-05-10T15:33:47;3.47;;;2.40;;
35667;SDS011;22158;59.280;17.806;2023-05-10T15:36:12;3.42;;;2.40;;
35667;SDS011;22158;59.280;17.806;2023-05-10T15:38:38;3.05;;;2.17;;
35667;SDS011;22158;59.280;17.806;2023-05-10T15:41:03;3.33;;;2.42;;
35667;SDS011;22158;59.280;17.806;2023-05-10T15:43:29;3.85;;;2.38;;
35667;SDS011;22158;59.280;17.806;2023-05-10T15:45:55;4.85;;;2.20;;
35667;SDS011;22158;59.280;17.806;2023-05-10T15:48:20;5.53;;;2.22;;
35667;SDS011;22158;59.280;17.806;2023-05-10T15:50:46;10.18;;;2.95;;
35667;SDS011;22158;59.280;17.806;2023-05-10T15:53:11;3.80;;;2.55;;
35667;SDS011;22158;59.280;17.806;2023-05-10T15:55:37;5.03;;;2.30;;
35667;SDS011;22158;59.280;17.806;2023-05-10T15:58:02;7.55;;;2.65;;
35667;SDS011;22158;59.280;17.806;2023-05-10T16:00:28;3.47;;;2.50;;
35667;SDS011;22158;59.280;17.806;2023-05-10T16:02:54;3.78;;;2.22;;
35667;SDS011;22158;59.280;17.806;2023-05-10T16:05:20;5.47;;;2.30;;
35667;SDS011;22158;59.280;17.806;2023-05-10T16:07:46;5.53;;;2.55;;
35667;SDS011;22158;59.280;17.806;2023-05-10T16:10:11;6.40;;;2.88;;
35667;SDS011;22158;59.280;17.806;2023-05-10T16:12:37;3.67;;;2.53;;
35667;SDS011;22158;59.280;17.806;2023-05-10T16:15:03;4.72;;;2.30;;
35667;SDS011;22158;59.280;17.806;2023-05-10T16:17:30;16.23;;;2.35;;
35667;SDS011;22158;59.280;17.806;2023-05-10T16:19:55;4.50;;;2.40;;
35667;SDS011;22158;59.280;17.806;2023-05-10T16:22:21;8.90;;;2.08;;
35667;SDS011;22158;59.280;17.806;2023-05-10T16:24:51;4.18;;;2.33;;
35667;SDS011;22158;59.280;17.806;2023-05-10T16:27:17;6.20;;;2.33;;
35667;SDS011;22158;59.280;17.806;2023-05-10T16:29:43;4.28;;;2.50;;
35667;SDS011;22158;59.280;17.806;2023-05-10T16:32:09;4.20;;;2.35;;
35667;SDS011;22158;59.280;17.806;2023-05-10T16:34:34;3.13;;;2.15;;
35667;SDS011;22158;59.280;17.806;2023-05-10T16:37:00;6.68;;;3.33;;
35667;SDS011;22158;59.280;17.806;2023-05-10T16:39:26;4.93;;;2.53;;
35667;SDS011;22158;59.280;17.806;2023-05-10T16:41:51;4.50;;;2.50;;
35667;SDS011;22158;59.280;17.806;2023-05-10T16:44:17;7.30;;;2.55;;
35667;SDS011;22158;59.280;17.806;2023-05-10T16:46:42;5.80;;;2.45;;
35667;SDS011;22158;59.280;17.806;2023-05-10T16:49:08;4.95;;;2.25;;
35667;SDS011;22158;59.280;17.806;2023-05-10T16:51:33;6.78;;;2.42;;
35667;SDS011;22158;59.280;17.806;2023-05-10T16:53:59;3.38;;;1.98;;
35667;SDS011;22158;59.280;17.806;2023-05-10T16:56:25;4.50;;;2.33;;
35667;SDS011;22158;59.280;17.806;2023-05-10T16:58:51;3.90;;;2.53;;
35667;SDS011;22158;59.280;17.806;2023-05-10T17:01:17;5.40;;;2.25;;
35667;SDS011;22158;59.280;17.806;2023-05-10T17:03:43;7.00;;;2.72;;
35667;SDS011;22158;59.280;17.806;2023-05-10T17:06:09;3.92;;;2.28;;
35667;SDS011;22158;59.280;17.806;2023-05-10T17:08:35;4.82;;;2.17;;
35667;SDS011;22158;59.280;17.806;2023-05-10T17:11:02;3.05;;;1.83;;
35667;SDS011;22158;59.280;17.806;2023-05-10T17:13:28;3.65;;;2.25;;
35667;SDS011;22158;59.280;17.806;2023-05-10T17:15:54;3.58;;;2.25;;
35667;SDS011;22158;59.280;17.806;2023-05-10T17:18:20;9.20;;;2.05;;
35667;SDS011;22158;59.280;17.806;2023-05-10T17:20:46;4.85;;;2.30;;
35667;SDS011;22158;59.280;17.806;2023-05-10T17:23:12;3.97;;;2.72;;
35667;SDS011;22158;59.280;17.806;2023-05-10T17:25:38;2.75;;;2.03;;
35667;SDS011;22158;59.280;17.806;2023-05-10T17:28:03;4.22;;;2.63;;
35667;SDS011;22158;59.280;17.806;2023-05-10T17:30:29;4.70;;;2.13;;
35667;SDS011;22158;59.280;17.806;2023-05-10T17:32:57;4.72;;;2.50;;
35667;SDS011;22158;59.280;17.806;2023-05-10T17:35:26;4.13;;;2.70;;
35667;SDS011;22158;59.280;17.806;2023-05-10T17:37:52;3.47;;;2.42;;
35667;SDS011;22158;59.280;17.806;2023-05-10T17:40:18;9.43;;;2.78;;
35667;SDS011;22158;59.280;17.806;2023-05-10T17:42:43;4.13;;;2.20;;
35667;SDS011;22158;59.280;17.806;2023-05-10T17:45:09;4.70;;;2.10;;
35667;SDS011;22158;59.280;17.806;2023-05-10T17:47:35;5.00;;;2.38;;
35667;SDS011;22158;59.280;17.806;2023-05-10T17:50:01;5.28;;;2.30;;
35667;SDS011;22158;59.280;17.806;2023-05-10T17:52:28;4.20;;;2.35;;
35667;SDS011;22158;59.280;17.806;2023-05-10T17:54:53;3.78;;;2.50;;
35667;SDS011;22158;59.280;17.806;2023-05-10T17:57:19;5.60;;;2.22;;
35667;SDS011;22158;59.280;17.806;2023-05-10T17:59:45;3.78;;;2.47;;
35667;SDS011;22158;59.280;17.806;2023-05-10T18:02:11;4.03;;;2.50;;
35667;SDS011;22158;59.280;17.806;2023-05-10T18:04:41;7.00;;;2.17;;
35667;SDS011;22158;59.280;17.806;2023-05-10T18:07:07;9.00;;;3.10;;
35667;SDS011;22158;59.280;17.806;2023-05-10T18:09:33;7.05;;;2.33;;
35667;SDS011;22158;59.280;17.806;2023-05-10T18:12:00;3.33;;;2.40;;
35667;SDS011;22158;59.280;17.806;2023-05-10T18:14:27;5.35;;;2.58;;
35667;SDS011;22158;59.280;17.806;2023-05-10T18:16:55;4.50;;;2.53;;
35667;SDS011;22158;59.280;17.806;2023-05-10T18:19:21;5.57;;;1.77;;
35667;SDS011;22158;59.280;17.806;2023-05-10T18:21:49;5.10;;;2.92;;
35667;SDS011;22158;59.280;17.806;2023-05-10T18:24:15;3.38;;;2.30;;
35667;SDS011;22158;59.280;17.806;2023-05-10T18:26:41;3.95;;;2.55;;
35667;SDS011;22158;59.280;17.806;2023-05-10T18:29:07;4.30;;;2.55;;
35667;SDS011;22158;59.280;17.806;2023-05-10T18:31:33;7.93;;;2.58;;
35667;SDS011;22158;59.280;17.806;2023-05-10T18:33:58;4.15;;;2.47;;
35667;SDS011;22158;59.280;17.806;2023-05-10T18:36:24;6.10;;;2.50;;
35667;SDS011;22158;59.280;17.806;2023-05-10T18:38:50;4.32;;;2.13;;
35667;SDS011;22158;59.280;17.806;2023-05-10T18:41:15;3.83;;;2.50;;
35667;SDS011;22158;59.280;17.806;2023-05-10T18:43:41;2.78;;;2.13;;
35667;SDS011;22158;59.280;17.806;2023-05-10T18:46:07;2.70;;;2.15;;
35667;SDS011;22158;59.280;17.806;2023-05-10T18:48:33;5.00;;;2.42;;
35667;SDS011;22158;59.280;17.806;2023-05-10T18:50:58;4.03;;;2.70;;
35667;SDS011;22158;59.280;17.806;2023-05-10T18:53:24;4.22;;;2.10;;
35667;SDS011;22158;59.280;17.806;2023-05-10T18:55:59;6.57;;;2.08;;
35667;SDS011;22158;59.280;17.806;2023-05-10T18:58:26;4.30;;;2.53;;
35667;SDS011;22158;59.280;17.806;2023-05-10T19:00:52;3.97;;;2.35;;
35667;SDS011;22158;59.280;17.806;2023-05-10T19:03:18;3.63;;;2.35;;
35667;SDS011;22158;59.280;17.806;2023-05-10T19:05:45;3.47;;;2.45;;
35667;SDS011;22158;59.280;17.806;2023-05-10T19:08:12;7.30;;;2.47;;
35667;SDS011;22158;59.280;17.806;2023-05-10T19:10:39;6.60;;;3.22;;
35667;SDS011;22158;59.280;17.806;2023-05-10T19:13:04;4.93;;;2.40;;
35667;SDS011;22158;59.280;17.806;2023-05-10T19:15:30;3.55;;;2.33;;
35667;SDS011;22158;59.280;17.806;2023-05-10T19:17:55;3.95;;;2.55;;
35667;SDS011;22158;59.280;17.806;2023-05-10T19:20:21;4.78;;;2.90;;
35667;SDS011;22158;59.280;17.806;2023-05-10T19:22:50;6.13;;;2.63;;
35667;SDS011;22158;59.280;17.806;2023-05-10T19:25:16;5.80;;;2.97;;
35667;SDS011;22158;59.280;17.806;2023-05-10T19:27:42;11.52;;;2.85;;
35667;SDS011;22158;59.280;17.806;2023-05-10T19:30:08;6.65;;;2.00;;
35667;SDS011;22158;59.280;17.806;2023-05-10T19:32:34;3.35;;;2.65;;
35667;SDS011;22158;59.280;17.806;2023-05-10T19:34:59;3.10;;;2.20;;
35667;SDS011;22158;59.280;17.806;2023-05-10T19:37:25;5.93;;;2.72;;
35667;SDS011;22158;59.280;17.806;2023-05-10T19:39:51;6.70;;;2.60;;
35667;SDS011;22158;59.280;17.806;2023-05-10T19:42:17;3.28;;;2.97;;
35667;SDS011;22158;59.280;17.806;2023-05-10T19:44:44;7.82;;;3.33;;
35667;SDS011;22158;59.280;17.806;2023-05-10T19:47:10;4.38;;;2.67;;
35667;SDS011;22158;59.280;17.806;2023-05-10T19:49:36;4.53;;;3.33;;